Time;durP1;ratioP1;P1;durP2;ratioP2;P2;SDS_P1;SDS_P2;PMS_P1;PMS_P2;Temp;Humidity;BMP_temperature;BMP_pressure;BME280_temperature;BME280_humidity;BME280_pressure;Samples;Min_cycle;Max_cycle;Signal;HPM_P1;HPM_P2
2021/07/12 00:02:03;;;;;;;;;;;19.40;99.90;;;;;;5049714;28;19928;-57
2021/07/12 00:04:29;;;;;;;;;;;19.40;99.90;;;;;;5049359;28;20015;-59
2021/07/12 00:06:54;;;;;;;;;;;19.30;99.90;;;;;;5049596;28;20391;-54
2021/07/12 00:09:20;;;;;;;;;;;19.30;99.90;;;;;;5049640;28;19944;-52
2021/07/12 00:11:45;;;;;;;;;;;19.30;99.90;;;;;;5049941;28;19959;-58
2021/07/12 00:14:11;;;;;;;;;;;19.30;99.90;;;;;;5049874;28;19908;-56
2021/07/12 00:16:36;;;;;;;;;;;19.30;99.90;;;;;;5049396;28;19912;-54
2021/07/12 00:19:02;;;;;;;;;;;19.20;99.90;;;;;;5049762;28;20533;-53
2021/07/12 00:21:28;;;;;;;;;;;19.20;99.90;;;;;;5049595;28;20003;-54
2021/07/12 00:23:53;;;;;;;;;;;19.20;99.90;;;;;;5049277;28;19923;-55
2021/07/12 00:26:19;;;;;;;;;;;19.20;99.90;;;;;;5049126;28;19909;-56
2021/07/12 00:28:44;;;;;;;;;;;19.20;99.90;;;;;;5049432;28;19908;-57
2021/07/12 00:31:10;;;;;;;;;;;19.20;99.90;;;;;;5051639;28;19924;-56
2021/07/12 00:33:36;;;;;;;;;;;19.10;99.90;;;;;;5052912;28;19963;-58
2021/07/12 00:36:02;;;;;;;;;;;19.10;99.90;;;;;;5052169;28;19912;-57
2021/07/12 00:38:28;;;;;;;;;;;19.10;99.90;;;;;;5053013;28;19981;-57
2021/07/12 00:40:53;;;;;;;;;;;19.00;99.90;;;;;;5053007;28;20374;-56
2021/07/12 00:43:19;;;;;;;;;;;19.00;99.90;;;;;;5052408;28;19913;-54
2021/07/12 00:45:45;;;;;;;;;;;19.00;99.90;;;;;;5052812;28;19909;-54
2021/07/12 00:48:10;;;;;;;;;;;18.90;99.90;;;;;;5034924;28;20315;-56
2021/07/12 00:50:37;;;;;;;;;;;18.90;99.90;;;;;;5053031;28;19908;-54
2021/07/12 00:53:04;;;;;;;;;;;18.90;99.90;;;;;;5052745;28;20325;-56
2021/07/12 00:55:38;;;;;;;;;;;18.80;99.90;;;;;;5050460;28;19909;-55
2021/07/12 00:58:07;;;;;;;;;;;18.90;99.90;;;;;;5092754;22;19924;-50
2021/07/12 01:00:33;;;;;;;;;;;18.80;99.90;;;;;;5074410;28;20302;-53
2021/07/12 01:02:58;;;;;;;;;;;18.80;99.90;;;;;;5072309;28;19913;-49
2021/07/12 01:05:27;;;;;;;;;;;18.80;99.90;;;;;;5071064;28;19974;-51
2021/07/12 01:07:52;;;;;;;;;;;18.70;99.90;;;;;;5068644;28;20286;-55
2021/07/12 01:10:19;;;;;;;;;;;18.70;99.90;;;;;;5062792;28;20015;-49
2021/07/12 01:12:56;;;;;;;;;;;18.70;99.90;;;;;;5068132;28;19924;-52
2021/07/12 01:15:23;;;;;;;;;;;18.60;99.90;;;;;;5040685;28;19909;-51
2021/07/12 01:17:48;;;;;;;;;;;18.60;99.90;;;;;;5064894;28;19913;-54
2021/07/12 01:20:41;;;;;;;;;;;18.60;99.90;;;;;;5063151;28;19962;-49
2021/07/12 01:23:22;;;;;;;;;;;18.60;99.90;;;;;;5068171;28;19966;-51
2021/07/12 01:26:06;;;;;;;;;;;18.50;99.90;;;;;;5066239;28;20399;-52
2021/07/12 01:28:42;;;;;;;;;;;18.50;99.90;;;;;;5068630;28;19913;-52
2021/07/12 01:31:13;;;;;;;;;;;18.50;99.90;;;;;;5065600;28;19992;-55
2021/07/12 01:33:41;;;;;;;;;;;18.40;99.90;;;;;;5068225;28;19915;-54
2021/07/12 01:36:13;;;;;;;;;;;18.40;99.90;;;;;;5070775;28;19909;-55
2021/07/12 01:38:39;;;;;;;;;;;18.30;99.90;;;;;;5067205;28;19909;-53
2021/07/12 01:41:16;;;;;;;;;;;18.30;99.90;;;;;;5064853;28;19915;-51
2021/07/12 01:43:56;;;;;;;;;;;18.30;99.90;;;;;;5070816;28;19923;-52
2021/07/12 01:46:21;;;;;;;;;;;18.30;99.90;;;;;;5064114;28;19916;-52
2021/07/12 01:48:53;;;;;;;;;;;18.20;99.90;;;;;;5044736;28;19909;-52
2021/07/12 01:51:21;;;;;;;;;;;18.20;99.90;;;;;;5070146;28;19912;-56
2021/07/12 01:54:07;;;;;;;;;;;18.20;99.90;;;;;;5066553;28;19909;-51
2021/07/12 01:56:35;;;;;;;;;;;18.10;99.90;;;;;;5053853;28;20411;-54
2021/07/12 01:59:21;;;;;;;;;;;18.10;99.90;;;;;;5063823;28;19916;-50
2021/07/12 02:01:48;;;;;;;;;;;18.10;99.90;;;;;;5066025;28;19912;-50
2021/07/12 02:04:14;;;;;;;;;;;18.00;99.90;;;;;;5067656;28;19913;-54
2021/07/12 02:06:40;;;;;;;;;;;18.00;99.90;;;;;;5068141;28;20003;-52
2021/07/12 02:09:12;;;;;;;;;;;18.00;99.90;;;;;;5068297;28;20391;-49
2021/07/12 02:11:40;;;;;;;;;;;17.90;99.90;;;;;;5066206;28;20377;-52
2021/07/12 02:14:06;;;;;;;;;;;17.90;99.90;;;;;;5050481;28;19909;-53
2021/07/12 02:16:33;;;;;;;;;;;17.80;99.90;;;;;;5063021;28;19908;-49
2021/07/12 02:19:00;;;;;;;;;;;17.70;99.90;;;;;;5069397;28;19908;-53
2021/07/12 02:21:32;;;;;;;;;;;17.70;99.90;;;;;;5065861;28;19913;-53
2021/07/12 02:23:58;;;;;;;;;;;17.70;99.90;;;;;;5068032;28;19952;-51
2021/07/12 02:26:23;;;;;;;;;;;17.60;99.90;;;;;;5065361;28;19990;-50
2021/07/12 02:28:51;;;;;;;;;;;17.60;99.90;;;;;;5066197;28;20458;-55
2021/07/12 02:31:17;;;;;;;;;;;17.60;99.90;;;;;;5052368;28;20391;-49
2021/07/12 02:33:42;;;;;;;;;;;17.60;99.90;;;;;;5066261;28;19920;-50
2021/07/12 02:36:08;;;;;;;;;;;17.50;99.90;;;;;;5068361;28;19909;-49
2021/07/12 02:38:36;;;;;;;;;;;17.40;99.90;;;;;;5065193;28;19913;-52
2021/07/12 02:41:02;;;;;;;;;;;17.40;99.90;;;;;;5067752;28;20375;-53
2021/07/12 02:43:28;;;;;;;;;;;17.30;99.90;;;;;;5064446;28;20015;-55
2021/07/12 02:45:54;;;;;;;;;;;17.30;99.90;;;;;;5066594;28;19999;-56
2021/07/12 02:48:19;;;;;;;;;;;17.30;99.90;;;;;;5070428;28;19909;-53
2021/07/12 02:50:46;;;;;;;;;;;17.30;99.90;;;;;;5065133;28;19927;-49
2021/07/12 02:53:15;;;;;;;;;;;17.30;99.90;;;;;;5067445;28;19909;-49
2021/07/12 02:55:41;;;;;;;;;;;17.30;99.90;;;;;;5063758;28;19961;-52
2021/07/12 02:58:06;;;;;;;;;;;17.20;99.90;;;;;;5066585;28;19924;-53
2021/07/12 03:00:32;;;;;;;;;;;17.20;99.90;;;;;;5068936;28;19912;-53
2021/07/12 03:02:57;;;;;;;;;;;17.20;99.90;;;;;;5065591;28;19908;-51
2021/07/12 03:05:23;;;;;;;;;;;17.20;99.90;;;;;;5045536;28;20579;-51
2021/07/12 03:07:57;;;;;;;;;;;17.20;99.90;;;;;;5062054;28;19908;-52
2021/07/12 03:10:27;;;;;;;;;;;17.20;99.90;;;;;;5062694;28;19959;-51
2021/07/12 03:12:58;;;;;;;;;;;17.20;99.90;;;;;;5069843;28;19919;-52
2021/07/12 03:15:52;;;;;;;;;;;17.20;99.90;;;;;;5066675;28;19944;-52
2021/07/12 03:18:19;;;;;;;;;;;17.20;99.90;;;;;;5059269;28;19915;-55
2021/07/12 03:20:46;;;;;;;;;;;17.20;99.90;;;;;;5065933;28;19908;-54
2021/07/12 03:23:13;;;;;;;;;;;17.10;99.90;;;;;;5068089;28;20018;-51
2021/07/12 03:25:41;;;;;;;;;;;17.10;99.90;;;;;;5046809;28;19913;-51
2021/07/12 03:28:06;;;;;;;;;;;17.10;99.90;;;;;;5069705;28;19916;-49
2021/07/12 03:30:34;;;;;;;;;;;17.10;99.90;;;;;;5069818;28;19924;-50
2021/07/12 03:33:00;;;;;;;;;;;17.10;99.90;;;;;;5064984;28;19909;-52
2021/07/12 03:35:29;;;;;;;;;;;17.10;99.90;;;;;;5069274;28;19954;-50
2021/07/12 03:37:55;;;;;;;;;;;17.10;99.90;;;;;;5064206;28;19912;-56
2021/07/12 03:40:22;;;;;;;;;;;17.10;99.90;;;;;;5068331;28;19916;-50
2021/07/12 03:42:47;;;;;;;;;;;17.10;99.90;;;;;;5064044;28;19958;-53
2021/07/12 03:45:13;;;;;;;;;;;17.10;99.90;;;;;;5066282;28;19916;-52
2021/07/12 03:47:39;;;;;;;;;;;17.10;99.90;;;;;;5069599;28;19908;-52
2021/07/12 03:50:05;;;;;;;;;;;17.10;99.90;;;;;;5063660;28;19908;-52
2021/07/12 03:52:39;;;;;;;;;;;17.10;99.90;;;;;;5064110;28;19999;-49
2021/07/12 03:55:04;;;;;;;;;;;17.20;99.90;;;;;;5067231;28;19908;-53
2021/07/12 03:57:30;;;;;;;;;;;17.20;99.90;;;;;;5061896;28;19917;-53
2021/07/12 03:59:55;;;;;;;;;;;17.10;99.90;;;;;;5068332;28;19938;-52
2021/07/12 04:02:21;;;;;;;;;;;17.20;99.90;;;;;;5039288;28;19961;-53
2021/07/12 04:04:47;;;;;;;;;;;17.20;99.90;;;;;;5049425;28;19960;-52
2021/07/12 04:07:12;;;;;;;;;;;17.20;99.90;;;;;;5069866;28;19924;-52
2021/07/12 04:09:37;;;;;;;;;;;17.20;99.90;;;;;;5068902;28;19908;-49
2021/07/12 04:12:03;;;;;;;;;;;17.30;99.90;;;;;;5073352;28;19916;-49
2021/07/12 04:14:29;;;;;;;;;;;17.20;99.90;;;;;;5069669;28;19921;-52
2021/07/12 04:16:54;;;;;;;;;;;17.30;99.90;;;;;;5072576;28;19970;-58
2021/07/12 04:19:19;;;;;;;;;;;17.30;99.90;;;;;;5069339;28;19976;-54
2021/07/12 04:21:45;;;;;;;;;;;17.30;99.90;;;;;;5067961;28;20286;-53
2021/07/12 04:24:10;;;;;;;;;;;17.30;99.90;;;;;;5070388;28;19920;-53
2021/07/12 04:26:36;;;;;;;;;;;17.30;99.90;;;;;;5068219;28;19913;-50
2021/07/12 04:29:01;;;;;;;;;;;17.30;99.90;;;;;;5072938;28;19909;-53
2021/07/12 04:31:27;;;;;;;;;;;17.30;99.90;;;;;;5069444;28;20319;-55
2021/07/12 04:33:52;;;;;;;;;;;17.30;99.90;;;;;;5071679;28;19917;-53
2021/07/12 04:36:18;;;;;;;;;;;17.40;99.90;;;;;;5068760;28;19909;-52
2021/07/12 04:38:43;;;;;;;;;;;17.40;99.90;;;;;;5070599;28;19933;-53
2021/07/12 04:41:08;;;;;;;;;;;17.40;99.90;;;;;;5070145;28;19936;-51
2021/07/12 04:43:35;;;;;;;;;;;17.40;99.90;;;;;;5067304;28;19913;-49
2021/07/12 04:46:00;;;;;;;;;;;17.40;99.90;;;;;;5072762;28;19978;-52
2021/07/12 04:48:26;;;;;;;;;;;17.50;99.90;;;;;;5069142;28;20394;-55
2021/07/12 04:50:51;;;;;;;;;;;17.50;99.90;;;;;;5067657;28;19912;-56
2021/07/12 04:53:16;;;;;;;;;;;17.60;99.90;;;;;;5070284;28;20522;-51
2021/07/12 04:55:42;;;;;;;;;;;17.60;99.90;;;;;;5066438;28;19958;-51
2021/07/12 04:58:08;;;;;;;;;;;17.60;99.90;;;;;;5069101;28;19920;-55
2021/07/12 05:00:35;;;;;;;;;;;17.70;99.90;;;;;;5071418;28;19909;-56
2021/07/12 05:03:02;;;;;;;;;;;17.70;99.90;;;;;;5068012;28;19999;-55
2021/07/12 05:05:27;;;;;;;;;;;17.70;99.90;;;;;;5070557;28;19916;-49
2021/07/12 05:07:53;;;;;;;;;;;17.70;99.90;;;;;;5067073;28;19908;-49
2021/07/12 05:10:18;;;;;;;;;;;17.80;99.90;;;;;;5069745;28;19909;-53
2021/07/12 05:12:44;;;;;;;;;;;17.80;99.90;;;;;;5071925;28;19943;-55
2021/07/12 05:15:11;;;;;;;;;;;17.90;99.90;;;;;;5068633;28;19947;-50
2021/07/12 05:17:37;;;;;;;;;;;17.90;99.90;;;;;;5071285;28;20365;-53
2021/07/12 05:20:03;;;;;;;;;;;17.90;99.90;;;;;;5067843;28;20003;-52
2021/07/12 05:22:29;;;;;;;;;;;18.00;99.90;;;;;;5070547;28;20305;-50
2021/07/12 05:24:54;;;;;;;;;;;18.00;99.90;;;;;;5066593;28;19912;-54
2021/07/12 05:27:21;;;;;;;;;;;18.10;99.90;;;;;;5069553;28;19974;-49
2021/07/12 05:29:46;;;;;;;;;;;18.20;99.90;;;;;;5047813;28;20284;-55
2021/07/12 05:32:12;;;;;;;;;;;18.20;99.90;;;;;;5068366;28;19919;-48
2021/07/12 05:34:37;;;;;;;;;;;18.20;99.90;;;;;;5046042;28;20314;-50
2021/07/12 05:37:03;;;;;;;;;;;18.30;99.90;;;;;;5067071;28;19909;-55
2021/07/12 05:39:28;;;;;;;;;;;18.40;99.90;;;;;;5070083;28;19914;-51
2021/07/12 05:41:54;;;;;;;;;;;18.50;99.90;;;;;;5066449;28;19909;-53
2021/07/12 05:44:19;;;;;;;;;;;18.50;99.90;;;;;;5068689;28;19919;-57
2021/07/12 05:46:45;;;;;;;;;;;18.60;99.90;;;;;;5047316;28;19916;-54
2021/07/12 05:49:10;;;;;;;;;;;18.70;99.90;;;;;;5068389;28;19908;-51
2021/07/12 05:51:36;;;;;;;;;;;18.80;99.90;;;;;;5066864;28;19995;-48
2021/07/12 05:54:01;;;;;;;;;;;18.90;99.90;;;;;;5068895;28;20500;-50
2021/07/12 05:56:27;;;;;;;;;;;19.10;99.90;;;;;;5065174;28;19909;-55
2021/07/12 05:58:52;;;;;;;;;;;19.10;99.90;;;;;;5041936;28;20492;-55
2021/07/12 06:01:18;;;;;;;;;;;19.30;99.90;;;;;;5070977;28;19909;-49
2021/07/12 06:03:43;;;;;;;;;;;19.40;99.90;;;;;;5066913;28;19912;-53
2021/07/12 06:06:09;;;;;;;;;;;19.50;99.90;;;;;;5069013;28;19908;-49
2021/07/12 06:08:34;;;;;;;;;;;19.60;99.90;;;;;;5066323;28;19909;-46
2021/07/12 06:11:00;;;;;;;;;;;19.80;99.90;;;;;;5068181;28;19977;-50
2021/07/12 06:13:25;;;;;;;;;;;19.90;99.90;;;;;;5071011;28;20003;-47
2021/07/12 06:15:51;;;;;;;;;;;20.00;99.90;;;;;;5067188;28;19931;-52
2021/07/12 06:18:16;;;;;;;;;;;20.10;99.90;;;;;;5070341;28;19916;-50
2021/07/12 06:20:43;;;;;;;;;;;20.20;99.90;;;;;;5066862;28;19920;-48
2021/07/12 06:23:09;;;;;;;;;;;20.40;99.90;;;;;;5068987;28;20454;-53
2021/07/12 06:25:34;;;;;;;;;;;20.50;99.90;;;;;;5065371;28;19992;-53
2021/07/12 06:28:00;;;;;;;;;;;20.60;99.90;;;;;;5067227;28;19908;-50
2021/07/12 06:30:25;;;;;;;;;;;20.80;99.90;;;;;;5070482;28;19969;-46
2021/07/12 06:32:51;;;;;;;;;;;20.90;99.90;;;;;;5066964;28;20348;-50
2021/07/12 06:35:16;;;;;;;;;;;21.00;99.90;;;;;;5069425;28;19915;-50
2021/07/12 06:37:42;;;;;;;;;;;21.10;99.90;;;;;;5066184;28;19916;-50
2021/07/12 06:40:07;;;;;;;;;;;21.20;99.90;;;;;;5068453;28;19916;-53
2021/07/12 06:42:33;;;;;;;;;;;21.40;99.90;;;;;;5065275;28;20290;-53
2021/07/12 06:44:58;;;;;;;;;;;21.50;99.90;;;;;;5066998;28;19923;-52
2021/07/12 06:47:25;;;;;;;;;;;21.60;99.90;;;;;;5070589;28;20301;-48
2021/07/12 06:49:50;;;;;;;;;;;21.70;99.90;;;;;;5066852;28;19908;-52
2021/07/12 06:52:16;;;;;;;;;;;21.90;99.90;;;;;;5063263;28;20000;-49
2021/07/12 06:54:41;;;;;;;;;;;22.00;99.90;;;;;;5052166;28;19919;-52
2021/07/12 06:57:07;;;;;;;;;;;22.20;99.90;;;;;;5079289;22;20486;-58
2021/07/12 06:59:32;;;;;;;;;;;22.30;99.90;;;;;;5030411;28;19909;-58
2021/07/12 07:01:58;;;;;;;;;;;22.40;99.90;;;;;;5029996;28;20282;-57
2021/07/12 07:04:23;;;;;;;;;;;22.50;99.90;;;;;;5029928;28;20023;-57
2021/07/12 07:06:49;;;;;;;;;;;22.60;99.90;;;;;;5029706;28;19909;-59
2021/07/12 07:09:14;;;;;;;;;;;22.70;99.90;;;;;;5029670;28;20286;-56
2021/07/12 07:11:40;;;;;;;;;;;22.90;99.90;;;;;;5029979;28;19919;-58
2021/07/12 07:14:05;;;;;;;;;;;23.10;99.90;;;;;;5012060;28;19909;-58
2021/07/12 07:16:31;;;;;;;;;;;23.20;99.90;;;;;;5029847;28;20093;-58
2021/07/12 07:18:56;;;;;;;;;;;23.30;99.90;;;;;;5029901;28;19932;-57
2021/07/12 07:21:22;;;;;;;;;;;23.40;99.90;;;;;;5029909;28;20692;-55
2021/07/12 07:23:47;;;;;;;;;;;23.60;99.90;;;;;;5030129;28;19959;-59
2021/07/12 07:26:13;;;;;;;;;;;23.70;99.90;;;;;;5003522;28;19910;-56
2021/07/12 07:28:39;;;;;;;;;;;23.90;99.90;;;;;;5029811;28;19996;-58
2021/07/12 07:31:04;;;;;;;;;;;23.90;99.90;;;;;;5011903;28;19909;-55
2021/07/12 07:33:30;;;;;;;;;;;24.10;99.90;;;;;;5029607;28;19916;-59
2021/07/12 07:35:58;;;;;;;;;;;24.10;99.90;;;;;;5029255;28;19975;-57
2021/07/12 07:38:24;;;;;;;;;;;24.30;99.90;;;;;;5029551;28;19909;-58
2021/07/12 07:40:49;;;;;;;;;;;24.50;99.90;;;;;;5031875;28;19971;-58
2021/07/12 07:43:15;;;;;;;;;;;24.60;99.90;;;;;;5027299;28;19923;-57
2021/07/12 07:45:41;;;;;;;;;;;24.70;99.90;;;;;;5015146;28;20013;-57
2021/07/12 07:48:06;;;;;;;;;;;24.70;99.90;;;;;;5008002;28;19909;-58
2021/07/12 07:50:36;;;;;;;;;;;24.70;99.90;;;;;;5034122;28;19935;-59
2021/07/12 07:53:02;;;;;;;;;;;24.80;99.90;;;;;;5033814;28;19909;-58
2021/07/12 07:55:28;;;;;;;;;;;24.90;99.90;;;;;;5033429;28;19924;-57
2021/07/12 07:57:53;;;;;;;;;;;25.20;99.90;;;;;;5032927;28;20003;-59
2021/07/12 08:00:20;;;;;;;;;;;25.30;99.90;;;;;;5033159;28;19916;-59
2021/07/12 08:02:45;;;;;;;;;;;25.50;99.90;;;;;;5033403;28;19916;-58
2021/07/12 08:05:11;;;;;;;;;;;25.70;99.90;;;;;;5032989;28;19913;-58
2021/07/12 08:07:37;;;;;;;;;;;25.90;99.90;;;;;;5033533;28;19940;-58
2021/07/12 08:10:07;;;;;;;;;;;26.10;99.90;;;;;;5033361;28;20379;-58
2021/07/12 08:12:32;;;;;;;;;;;26.30;99.90;;;;;;5033638;28;20360;-57
2021/07/12 08:14:58;;;;;;;;;;;26.30;99.90;;;;;;5032841;28;19921;-58
2021/07/12 08:17:23;;;;;;;;;;;26.30;99.90;;;;;;5033474;28;19909;-57
2021/07/12 08:19:49;;;;;;;;;;;26.50;99.90;;;;;;5033758;28;19920;-56
2021/07/12 08:22:14;;;;;;;;;;;26.60;99.90;;;;;;5033463;28;19914;-57
2021/07/12 08:24:39;;;;;;;;;;;26.60;99.90;;;;;;5032778;28;19917;-58
2021/07/12 08:27:05;;;;;;;;;;;26.80;99.90;;;;;;5033191;28;20261;-58
2021/07/12 08:29:31;;;;;;;;;;;26.80;99.90;;;;;;5033634;28;19913;-55
2021/07/12 08:31:56;;;;;;;;;;;26.90;99.90;;;;;;5033050;28;19909;-57
2021/07/12 08:34:22;;;;;;;;;;;26.90;99.90;;;;;;5033295;28;19913;-58
2021/07/12 08:36:47;;;;;;;;;;;26.90;99.90;;;;;;5032980;28;19948;-59
2021/07/12 08:39:13;;;;;;;;;;;26.90;99.90;;;;;;5033094;28;19932;-60
2021/07/12 08:41:38;;;;;;;;;;;27.20;99.90;;;;;;5033035;28;19952;-56
2021/07/12 08:44:04;;;;;;;;;;;27.30;99.90;;;;;;5032619;28;20034;-60
2021/07/12 08:46:30;;;;;;;;;;;27.40;99.90;;;;;;5032959;28;19979;-59
2021/07/12 08:48:55;;;;;;;;;;;27.70;99.90;;;;;;5032822;28;20402;-58
2021/07/12 08:51:21;;;;;;;;;;;27.90;99.90;;;;;;5032715;28;19983;-60
2021/07/12 08:53:47;;;;;;;;;;;28.00;99.90;;;;;;5008375;28;20291;-58
2021/07/12 08:56:13;;;;;;;;;;;28.20;99.90;;;;;;5032328;28;19909;-58
2021/07/12 08:58:38;;;;;;;;;;;28.40;99.90;;;;;;5032635;28;20075;-54
2021/07/12 09:01:05;;;;;;;;;;;28.40;99.90;;;;;;5031933;28;19936;-57
2021/07/12 09:03:32;;;;;;;;;;;28.70;99.20;;;;;;5032113;28;20415;-54
2021/07/12 09:06:12;;;;;;;;;;;28.70;98.60;;;;;;5032291;28;19920;-55
2021/07/12 09:08:54;;;;;;;;;;;28.90;98.80;;;;;;5032678;28;20004;-57
2021/07/12 09:11:22;;;;;;;;;;;29.10;99.10;;;;;;5032497;28;19909;-58
2021/07/12 09:13:47;;;;;;;;;;;29.30;98.00;;;;;;5032028;28;19979;-56
2021/07/12 09:16:32;;;;;;;;;;;29.30;97.90;;;;;;5031829;28;20375;-59
2021/07/12 09:19:06;;;;;;;;;;;29.50;97.90;;;;;;5014465;28;19913;-59
2021/07/12 09:21:53;;;;;;;;;;;29.50;95.50;;;;;;5026724;28;19961;-58
2021/07/12 09:24:19;;;;;;;;;;;29.40;95.90;;;;;;5027193;28;20017;-56
2021/07/12 09:26:46;;;;;;;;;;;29.30;96.60;;;;;;5032062;28;19949;-59
2021/07/12 09:29:18;;;;;;;;;;;29.20;96.70;;;;;;5032617;28;20363;-56
2021/07/12 09:31:44;;;;;;;;;;;29.00;95.60;;;;;;5028181;28;19909;-55
2021/07/12 09:34:09;;;;;;;;;;;28.80;96.40;;;;;;5031901;28;19943;-57
2021/07/12 09:36:35;;;;;;;;;;;28.80;96.10;;;;;;5031361;28;19962;-55
2021/07/12 09:39:16;;;;;;;;;;;28.50;96.20;;;;;;5030022;28;19917;-58
2021/07/12 09:41:41;;;;;;;;;;;28.40;97.00;;;;;;5029592;28;19952;-58
2021/07/12 09:44:08;;;;;;;;;;;28.60;97.90;;;;;;5030392;28;20413;-59
2021/07/12 09:46:33;;;;;;;;;;;28.90;96.00;;;;;;5031637;28;19909;-57
2021/07/12 09:49:08;;;;;;;;;;;29.10;95.20;;;;;;5031664;28;19914;-57
2021/07/12 09:51:34;;;;;;;;;;;29.30;95.50;;;;;;5031702;28;19921;-60
2021/07/12 09:54:19;;;;;;;;;;;29.30;94.40;;;;;;5013299;28;19909;-55
2021/07/12 09:56:46;;;;;;;;;;;29.30;94.90;;;;;;5030140;28;19916;-55
2021/07/12 09:59:13;;;;;;;;;;;29.30;94.70;;;;;;5030844;28;19970;-57
2021/07/12 10:01:39;;;;;;;;;;;29.30;94.80;;;;;;5031437;28;19924;-57
2021/07/12 10:04:05;;;;;;;;;;;29.20;94.30;;;;;;5029939;28;20496;-55
2021/07/12 10:06:32;;;;;;;;;;;29.20;95.20;;;;;;5030988;28;19909;-59
2021/07/12 10:08:58;;;;;;;;;;;29.10;94.60;;;;;;5030978;28;19916;-54
2021/07/12 10:11:23;;;;;;;;;;;29.00;94.30;;;;;;5031454;28;19909;-57
2021/07/12 10:13:49;;;;;;;;;;;29.10;93.90;;;;;;5031384;28;19910;-56
2021/07/12 10:16:14;;;;;;;;;;;29.20;93.70;;;;;;5031372;28;19909;-55
2021/07/12 10:18:39;;;;;;;;;;;29.10;93.90;;;;;;5031531;28;19909;-58
2021/07/12 10:21:06;;;;;;;;;;;29.20;94.10;;;;;;5031419;28;19941;-58
2021/07/12 10:23:32;;;;;;;;;;;29.20;94.20;;;;;;5031702;28;20012;-57
2021/07/12 10:25:57;;;;;;;;;;;29.20;93.90;;;;;;5031208;28;20483;-57
2021/07/12 10:28:39;;;;;;;;;;;29.30;94.50;;;;;;5031115;28;19917;-57
2021/07/12 10:31:18;;;;;;;;;;;29.20;94.20;;;;;;5005234;28;19910;-56
2021/07/12 10:33:44;;;;;;;;;;;29.20;94.50;;;;;;5030425;28;19917;-57
2021/07/12 10:36:09;;;;;;;;;;;29.00;93.90;;;;;;5030549;28;19922;-58
2021/07/12 10:38:40;;;;;;;;;;;28.90;93.80;;;;;;5030953;28;19909;-59
2021/07/12 10:41:28;;;;;;;;;;;28.80;92.50;;;;;;5030883;28;20029;-58
2021/07/12 10:43:54;;;;;;;;;;;28.90;93.00;;;;;;5027611;28;19913;-58
2021/07/12 10:46:23;;;;;;;;;;;29.10;93.70;;;;;;5030663;28;19910;-53
2021/07/12 10:48:49;;;;;;;;;;;29.20;92.30;;;;;;5031369;28;20020;-55
2021/07/12 10:51:18;;;;;;;;;;;29.00;92.90;;;;;;5030834;28;19957;-56
2021/07/12 10:53:44;;;;;;;;;;;28.80;92.90;;;;;;5030648;28;19940;-55
2021/07/12 10:56:11;;;;;;;;;;;28.80;92.10;;;;;;5030946;28;19909;-56
2021/07/12 10:58:39;;;;;;;;;;;28.90;93.30;;;;;;5030565;28;20012;-59
2021/07/12 11:01:06;;;;;;;;;;;28.90;93.00;;;;;;5030314;28;19935;-58
2021/07/12 11:03:34;;;;;;;;;;;28.80;93.00;;;;;;5030664;28;19955;-59
2021/07/12 11:06:00;;;;;;;;;;;28.70;92.70;;;;;;5030489;28;19992;-56
2021/07/12 11:08:44;;;;;;;;;;;28.50;94.70;;;;;;5030836;28;20010;-55
2021/07/12 11:11:11;;;;;;;;;;;28.40;93.70;;;;;;5030793;28;20433;-55
2021/07/12 11:13:58;;;;;;;;;;;28.30;93.00;;;;;;5030657;28;19909;-56
2021/07/12 11:16:36;;;;;;;;;;;28.20;93.20;;;;;;5030128;28;19909;-54
2021/07/12 11:19:20;;;;;;;;;;;28.20;94.00;;;;;;5031076;28;19916;-52
2021/07/12 11:21:46;;;;;;;;;;;28.30;93.00;;;;;;5027161;28;19910;-54
2021/07/12 11:24:19;;;;;;;;;;;28.70;93.40;;;;;;5030754;28;19913;-55
2021/07/12 11:26:48;;;;;;;;;;;28.80;92.90;;;;;;5026682;28;19975;-57
2021/07/12 11:29:31;;;;;;;;;;;29.00;92.70;;;;;;5031167;28;19952;-58
2021/07/12 11:32:02;;;;;;;;;;;29.20;92.30;;;;;;5011620;28;19935;-58
2021/07/12 11:34:32;;;;;;;;;;;29.30;92.50;;;;;;5031669;28;20414;-58
2021/07/12 11:36:57;;;;;;;;;;;29.30;92.00;;;;;;5030679;28;19910;-57
2021/07/12 11:39:24;;;;;;;;;;;29.30;92.70;;;;;;5030644;28;19909;-57
2021/07/12 11:41:50;;;;;;;;;;;29.30;91.80;;;;;;5012624;28;19909;-56
2021/07/12 11:44:17;;;;;;;;;;;29.20;92.50;;;;;;5028750;28;20409;-59
2021/07/12 11:46:42;;;;;;;;;;;29.20;92.30;;;;;;5030493;28;19917;-58
2021/07/12 11:49:16;;;;;;;;;;;29.10;91.70;;;;;;5029642;28;22521;-58
2021/07/12 11:51:42;;;;;;;;;;;29.00;92.10;;;;;;5031142;28;20318;-55
2021/07/12 11:54:18;;;;;;;;;;;28.90;92.70;;;;;;5030464;28;19992;-58
2021/07/12 11:56:55;;;;;;;;;;;29.10;94.30;;;;;;5031053;28;20437;-57
2021/07/12 11:59:28;;;;;;;;;;;29.30;91.80;;;;;;5030597;28;19913;-59
2021/07/12 12:02:12;;;;;;;;;;;29.30;91.40;;;;;;5030853;28;20030;-57
2021/07/12 12:04:41;;;;;;;;;;;29.20;90.90;;;;;;5025601;28;20518;-58
2021/07/12 12:07:41;;;;;;;;;;;29.00;91.80;;;;;;5030266;28;19916;-54
2021/07/12 12:10:11;;;;;;;;;;;28.70;91.80;;;;;;4988181;28;19945;-58
2021/07/12 12:12:44;;;;;;;;;;;28.70;92.80;;;;;;5021245;28;20561;-58
2021/07/12 12:15:26;;;;;;;;;;;28.70;92.60;;;;;;5029959;28;19957;-59
2021/07/12 12:17:59;;;;;;;;;;;28.70;93.60;;;;;;5030268;28;20268;-59
2021/07/12 12:20:26;;;;;;;;;;;28.70;92.40;;;;;;5030629;28;19909;-57
2021/07/12 12:22:57;;;;;;;;;;;28.50;92.40;;;;;;5013150;28;20378;-60
2021/07/12 12:25:22;;;;;;;;;;;28.40;92.60;;;;;;5031269;28;19952;-57
2021/07/12 12:27:48;;;;;;;;;;;28.20;92.70;;;;;;5034678;28;20346;-59
2021/07/12 12:30:14;;;;;;;;;;;28.00;93.00;;;;;;5016262;28;19915;-57
2021/07/12 12:32:39;;;;;;;;;;;27.90;93.50;;;;;;5033717;28;19915;-58
2021/07/12 12:35:06;;;;;;;;;;;28.00;94.00;;;;;;5015769;28;19909;-57
2021/07/12 12:37:39;;;;;;;;;;;28.20;93.50;;;;;;5033857;28;19909;-58
2021/07/12 12:40:08;;;;;;;;;;;28.30;93.40;;;;;;5033470;28;19963;-59
2021/07/12 12:42:34;;;;;;;;;;;28.50;92.40;;;;;;5033811;28;19910;-54
2021/07/12 12:44:59;;;;;;;;;;;28.80;93.00;;;;;;5032422;28;19913;-57
2021/07/12 12:47:28;;;;;;;;;;;28.80;92.00;;;;;;5034093;28;19909;-58
2021/07/12 12:49:54;;;;;;;;;;;28.70;92.30;;;;;;5033921;28;19971;-57
2021/07/12 12:52:20;;;;;;;;;;;28.50;92.00;;;;;;5034143;28;20458;-58
2021/07/12 12:54:47;;;;;;;;;;;28.30;92.90;;;;;;5033798;28;19909;-59
2021/07/12 12:57:13;;;;;;;;;;;28.10;92.70;;;;;;5033614;28;19919;-56
2021/07/12 12:59:43;;;;;;;;;;;28.10;92.60;;;;;;5071258;22;20530;-54
2021/07/12 13:02:11;;;;;;;;;;;28.00;92.30;;;;;;5052002;28;19916;-56
2021/07/12 13:04:40;;;;;;;;;;;27.90;92.90;;;;;;5051844;28;20020;-55
2021/07/12 13:07:05;;;;;;;;;;;27.80;92.40;;;;;;5026222;28;19948;-55
2021/07/12 13:09:33;;;;;;;;;;;27.70;92.80;;;;;;5051409;28;19962;-54
2021/07/12 13:12:12;;;;;;;;;;;27.60;93.00;;;;;;5033399;28;19909;-54
2021/07/12 13:14:39;;;;;;;;;;;27.50;93.60;;;;;;5049252;28;20000;-53
2021/07/12 13:17:09;;;;;;;;;;;27.60;94.00;;;;;;5032170;28;19909;-51
2021/07/12 13:19:35;;;;;;;;;;;27.90;94.30;;;;;;5047725;28;19909;-55
2021/07/12 13:22:01;;;;;;;;;;;28.10;93.40;;;;;;5050857;28;20000;-53
2021/07/12 13:24:39;;;;;;;;;;;28.00;93.60;;;;;;5044642;28;20008;-55
2021/07/12 13:27:04;;;;;;;;;;;28.00;94.60;;;;;;5051603;28;19951;-49
2021/07/12 13:29:31;;;;;;;;;;;27.80;94.30;;;;;;5047823;28;19944;-54
2021/07/12 13:31:56;;;;;;;;;;;27.70;94.90;;;;;;5050187;28;19909;-58
2021/07/12 13:34:21;;;;;;;;;;;27.50;95.50;;;;;;5047325;28;20020;-57
2021/07/12 13:36:48;;;;;;;;;;;27.20;96.50;;;;;;5048596;28;19920;-59
2021/07/12 13:39:13;;;;;;;;;;;27.10;97.30;;;;;;5048342;28;20387;-56
2021/07/12 13:41:39;;;;;;;;;;;26.90;96.90;;;;;;5045888;28;19909;-54
2021/07/12 13:44:04;;;;;;;;;;;26.80;98.10;;;;;;5050502;28;20379;-50
2021/07/12 13:46:30;;;;;;;;;;;26.60;98.40;;;;;;5047376;28;19992;-55
2021/07/12 13:48:55;;;;;;;;;;;26.60;98.30;;;;;;5050036;28;19913;-55
2021/07/12 13:51:23;;;;;;;;;;;26.50;99.20;;;;;;5029512;28;19909;-50
2021/07/12 13:53:49;;;;;;;;;;;26.50;99.90;;;;;;5043728;28;19935;-52
2021/07/12 13:56:14;;;;;;;;;;;26.50;99.50;;;;;;5047476;28;20374;-55
2021/07/12 13:58:40;;;;;;;;;;;26.50;99.90;;;;;;5049986;28;19917;-55
2021/07/12 14:01:05;;;;;;;;;;;26.50;99.00;;;;;;5046414;28;19909;-55
2021/07/12 14:03:31;;;;;;;;;;;26.50;98.50;;;;;;5049057;28;19915;-57
2021/07/12 14:05:57;;;;;;;;;;;26.60;98.70;;;;;;5045273;28;19923;-55
2021/07/12 14:08:22;;;;;;;;;;;26.70;98.20;;;;;;5048148;28;19995;-55
2021/07/12 14:10:48;;;;;;;;;;;26.70;98.00;;;;;;5050412;28;19908;-55
2021/07/12 14:13:13;;;;;;;;;;;26.80;97.80;;;;;;5047170;28;19963;-53
2021/07/12 14:15:38;;;;;;;;;;;26.80;98.20;;;;;;5049175;28;19908;-52
2021/07/12 14:18:04;;;;;;;;;;;26.90;98.20;;;;;;5045952;28;19912;-51
2021/07/12 14:20:29;;;;;;;;;;;26.90;98.00;;;;;;5048896;28;19960;-51